Calypso — IYQT — position and weather

sailwx.info

Track history (hours):
 
Tides and Currents Weather Stations Pressure Air Temp Water Temp Dewpoint Dewpoint Depression Visibility Wind Speed Wind Dir Waves Ship Positions

Calypso

Last reported at 2017-May-23 12:52 UTC. Time now 2017-May-23 14:53 UTC.
Position N 38°32' E 014°56'.

Length 32 m; draft 4.2 m.

Type: High speed craft. MMSI: 247143200.

Date/timePositionNaut miles runAvg speedWind from/ knotsBaromVisibWave heightAir tempDewpointWater temp
2017-May-23 12:52N 38°32' E 014°56'411.5
2017-May-23 12:29N 38°28' E 014°57'613.0
2017-May-23 12:01N 38°23' E 015°02'1428.8
2017-May-23 11:30N 38°13' E 015°15'1 1.4
2017-May-23 11:00N 38°13' E 015°14'0 0.0
2017-May-23 10:30N 38°13' E 015°14'0 0.0
2017-May-23 10:00N 38°13' E 015°14'0 0.0
2017-May-23 09:30N 38°13' E 015°14'0 0.7
2017-May-23 09:00N 38°13' E 015°15'0 0.0
2017-May-23 08:30N 38°13' E 015°15'0 0.7
2017-May-23 08:00N 38°13' E 015°14'815.9
2017-May-23 07:30N 38°21' E 015°12'1221.8
2017-May-23 06:58N 38°25' E 014°58'4 7.1
2017-May-23 06:25N 38°29' E 014°59'1826.3
2017-May-23 05:43N 38°45' E 015°10'311.0
2017-May-23 05:29N 38°46' E 015°13'713.5
2017-May-23 04:58N 38°39' E 015°16'1533.8
2017-May-23 04:30N 38°24' E 015°17'1122.5
2017-May-23 04:00N 38°13' E 015°14'0 0.0
2017-May-23 03:30N 38°13' E 015°14'0 0.0
2017-May-22 17:23N 38°13' E 015°14'0 0.5
2017-May-22 17:00N 38°13' E 015°15'1224.7
2017-May-22 16:30N 38°22' E 015°04'812.1
2017-May-22 15:52N 38°28' E 014°58'5 1.5
2017-May-22 12:51N 38°33' E 014°56'511.4
2017-May-22 12:24N 38°28' E 014°58'614.8
2017-May-22 12:01N 38°23' E 015°03'1428.4
2017-May-22 11:31N 38°13' E 015°15'1 1.2
2017-May-22 11:00N 38°13' E 015°14'0 0.0
2017-May-22 10:31N 38°13' E 015°14'0 0.0
2017-May-22 10:01N 38°13' E 015°14'0 0.0
2017-May-22 09:31N 38°13' E 015°14'0 0.0
2017-May-22 09:01N 38°13' E 015°14'0 0.7
2017-May-22 08:30N 38°13' E 015°15'0 0.5
2017-May-22 08:01N 38°13' E 015°15'612.4
2017-May-22 07:31N 38°19' E 015°12'1320.6
2017-May-22 06:53N 38°26' E 014°59'512.6
2017-May-22 06:30N 38°31' E 015°00'1121.7
2017-May-22 05:58N 38°41' E 015°07'811.5
2017-May-22 05:14N 38°47' E 015°15'834.0
2017-May-22 05:00N 38°39' E 015°17'1733.8
2017-May-22 04:31N 38°23' E 015°19'1020.0
2017-May-22 04:00N 38°13' E 015°14'0 0.0
2017-May-22 03:30N 38°13' E 015°14'0 0.0
2017-May-21 17:45N 38°13' E 015°14'0 0.6
2017-May-21 17:30N 38°13' E 015°15'815.7
2017-May-21 17:00N 38°20' E 015°10'1118.3
2017-May-21 16:25N 38°25' E 014°58'813.4
2017-May-21 15:51N 38°33' E 014°57'1 0.3
2017-May-21 12:44N 38°32' E 014°58'412.3
2017-May-21 12:24N 38°28' E 014°58'717.5
2017-May-21 12:00N 38°23' E 015°05'1325.9
2017-May-21 11:30N 38°13' E 015°15'0 1.0
2017-May-21 11:00N 38°13' E 015°14'0 0.0
2017-May-21 10:30N 38°13' E 015°14'0 0.0
2017-May-21 10:00N 38°13' E 015°14'0 0.0
2017-May-21 09:30N 38°13' E 015°14'0 0.0
2017-May-21 09:00N 38°13' E 015°14'0 0.7
2017-May-21 08:30N 38°13' E 015°15'0 0.0
2017-May-21 08:00N 38°13' E 015°15'3 5.7
2017-May-21 07:30N 38°16' E 015°16'1325.9
2017-May-21 07:00N 38°23' E 015°03'6 9.5
2017-May-21 06:23N 38°28' E 014°59'1120.4
2017-May-21 05:49N 38°39' E 015°05'1133.0
2017-May-21 05:29N 38°47' E 015°14'918.7
2017-May-21 05:00N 38°38' E 015°18'1632.4
2017-May-21 04:31N 38°22' E 015°19'1019.9
2017-May-21 04:00N 38°13' E 015°14'0 0.0
2017-May-21 03:30N 38°13' E 015°14'0 0.0
2017-May-21 03:01N 38°13' E 015°14'0 0.0
2017-May-20 17:30N 38°13' E 015°14'2 4.6
2017-May-20 17:01N 38°15' E 015°16'1632.9
2017-May-20 16:30N 38°25' E 014°59'6 1.7
2017-May-20 12:49N 38°31' E 014°58'3 7.4
2017-May-20 12:24N 38°28' E 014°58'614.7
2017-May-20 12:00N 38°24' E 015°02'1529.7
2017-May-20 11:31N 38°14' E 015°16'1 2.6
2017-May-20 11:00N 38°13' E 015°14'0 0.0
2017-May-20 10:31N 38°13' E 015°14'0 0.0
2017-May-20 10:00N 38°13' E 015°14'0 0.0
2017-May-20 09:30N 38°13' E 015°14'0 0.0
2017-May-20 09:00N 38°13' E 015°14'0 0.7
2017-May-20 08:31N 38°13' E 015°15'0 0.0
2017-May-20 08:01N 38°13' E 015°15'3 6.0
2017-May-20 07:31N 38°16' E 015°16'1632.0
2017-May-20 07:00N 38°25' E 014°60'4 6.2
2017-May-20 06:25N 38°28' E 014°58'1221.1
2017-May-20 05:52N 38°38' E 015°05'1222.6
2017-May-20 05:21N 38°47' E 015°14'515.5
2017-May-20 05:00N 38°42' E 015°14'1734.5
2017-May-20 04:30N 38°25' E 015°15'1223.7
2017-May-20 04:00N 38°13' E 015°14'0 0.1
2017-May-20 03:30N 38°13' E 015°15'0 0.0
2017-May-20 03:00N 38°13' E 015°15'0 0.0
2017-May-19 17:01N 38°13' E 015°15'0 0.0
2017-May-19 17:00N 38°13' E 015°15'0 0.2
2017-May-19 16:31N 38°13' E 015°14'1223.7
2017-May-19 16:00N 38°23' E 015°05'811.9
2017-May-19 15:19N 38°28' E 014°57'1222.5
2017-May-19 14:47N 38°38' E 015°05'1012.5
2017-May-19 14:00N 38°47' E 015°11'1120.1
2017-May-19 13:27N 38°38' E 015°05'1117.0
2017-May-19 12:49N 38°28' E 014°59'1134.0
2017-May-19 12:30N 38°21' E 015°09'918.3
2017-May-19 12:00N 38°13' E 015°14'0 0.7
2017-May-19 11:30N 38°13' E 015°15'0 0.7
2017-May-19 11:00N 38°13' E 015°14'919.0
2017-May-19 10:31N 38°21' E 015°09'1019.0
2017-May-19 09:59N 38°27' E 014°59'1 3.0
2017-May-19 09:30N 38°29' E 014°59'815.4
2017-May-19 08:59N 38°33' E 014°50'1 0.6
2017-May-19 07:02N 38°32' E 014°48'128.2
2017-May-19 07:00N 38°33' E 014°50'612.3
2017-May-19 06:28N 38°32' E 014°58'612.9
2017-May-19 06:00N 38°26' E 014°59'1019.7
2017-May-19 05:31N 38°21' E 015°09'917.4
2017-May-19 05:00N 38°13' E 015°14'0 0.2
2017-May-19 04:30N 38°13' E 015°15'0 0.0
2017-May-19 04:00N 38°13' E 015°15'0 0.0
2017-May-18 16:59N 38°13' E 015°15'1 2.9
2017-May-18 16:31N 38°14' E 015°16'1732.2
2017-May-18 15:58N 38°25' E 014°59'6 8.7
2017-May-18 15:17N 38°31' E 015°00'1124.4
2017-May-18 14:50N 38°41' E 015°07'711.2
2017-May-18 14:14N 38°46' E 015°12'1115.3
2017-May-18 13:29N 38°37' E 015°04'1014.4
2017-May-18 12:49N 38°28' E 014°59'1134.3
2017-May-18 12:30N 38°21' E 015°09'918.3
2017-May-18 12:00N 38°13' E 015°14'0 0.7
2017-May-18 11:30N 38°13' E 015°15'0 0.0
2017-May-18 11:01N 38°13' E 015°15'611.2
2017-May-18 10:31N 38°18' E 015°15'1522.1
2017-May-18 09:50N 38°26' E 014°59'2 6.0
2017-May-18 09:30N 38°28' E 014°59'4 1.4
2017-May-18 06:30N 38°32' E 014°57'713.6
2017-May-18 06:00N 38°26' E 014°59'1019.9
2017-May-18 05:31N 38°21' E 015°10'816.9
2017-May-18 05:00N 38°13' E 015°14'0 0.2
2017-May-18 04:30N 38°13' E 015°15'0 0.0
2017-May-18 04:00N 38°13' E 015°15'0 0.0
2017-May-17 16:55N 38°13' E 015°15'0 0.3
2017-May-17 16:30N 38°13' E 015°15'1224.8
2017-May-17 16:00N 38°23' E 015°04'812.9
2017-May-17 15:24N 38°28' E 014°57'1523.3
2017-May-17 14:45N 38°41' E 015°07'713.7
2017-May-17 14:15N 38°46' E 015°13'1114.7
2017-May-17 13:30N 38°37' E 015°05'1116.4
2017-May-17 12:51N 38°28' E 014°58'1233.2
2017-May-17 12:30N 38°22' E 015°10'918.6
2017-May-17 12:00N 38°13' E 015°14'0 0.4
2017-May-17 11:30N 38°13' E 015°15'0 0.0
2017-May-17 11:00N 38°13' E 015°15'3 5.5
2017-May-17 10:31N 38°15' E 015°17'1918.0
2017-May-17 09:27N 38°29' E 014°59'3 0.9
2017-May-17 06:28N 38°31' E 014°58'613.1
2017-May-17 06:00N 38°25' E 014°58'918.2
2017-May-17 05:31N 38°21' E 015°08'918.1
2017-May-17 05:00N 38°13' E 015°14'0 0.2
2017-May-17 04:30N 38°13' E 015°15'0 0.0
2017-May-17 04:00N 38°13' E 015°15'0 0.0
2017-May-16 16:45N 38°13' E 015°15'0 0.3
2017-May-16 16:30N 38°13' E 015°14'918.3
2017-May-16 16:00N 38°21' E 015°08'1616.6
2017-May-16 15:02N 38°36' E 015°04'234.7
2017-May-16 15:00N 38°38' E 015°05'1217.0
2017-May-16 14:17N 38°47' E 015°14'1519.1
2017-May-16 13:30N 38°35' E 015°03'914.9
2017-May-16 12:54N 38°27' E 015°00'1334.0
2017-May-16 12:31N 38°18' E 015°14'5 9.9
2017-May-16 12:00N 38°13' E 015°14'0 0.7
2017-May-16 11:30N 38°13' E 015°15'0 0.0
2017-May-16 11:00N 38°13' E 015°15'4 8.2
2017-May-16 10:30N 38°17' E 015°16'1625.6
2017-May-16 09:53N 38°25' E 014°58'4 9.4
2017-May-16 09:30N 38°29' E 014°59'3 0.9
2017-May-16 06:30N 38°31' E 014°58'510.3
2017-May-16 06:00N 38°26' E 014°59'1020.1
2017-May-16 05:30N 38°21' E 015°09'917.2
2017-May-16 05:00N 38°13' E 015°14'0 0.0
2017-May-16 04:31N 38°13' E 015°14'0 0.0
2017-May-16 04:00N 38°13' E 015°14'0 0.0
2017-May-15 17:12N 38°13' E 015°14'0 0.0
2017-May-15 17:00N 38°13' E 015°14'1122.5
2017-May-15 16:31N 38°22' E 015°06'913.3
2017-May-15 15:50N 38°28' E 014°58'713.8
2017-May-15 15:18N 38°32' E 014°50'7 2.6
2017-May-15 12:45N 38°31' E 014°58'310.0
2017-May-15 12:27N 38°28' E 014°58'817.7
2017-May-15 12:00N 38°23' E 015°04'1325.4
2017-May-15 11:30N 38°13' E 015°15'0 0.7
2017-May-15 11:00N 38°13' E 015°14'0 0.0
2017-May-15 10:30N 38°13' E 015°14'0 0.0
2017-May-15 10:00N 38°13' E 015°14'0 0.0
2017-May-15 09:30N 38°13' E 015°14'0 0.0
2017-May-15 09:00N 38°13' E 015°14'0 0.7
2017-May-15 08:30N 38°13' E 015°15'0 0.0
2017-May-15 08:00N 38°13' E 015°15'4 8.7
2017-May-15 07:31N 38°17' E 015°15'1624.8
2017-May-15 06:53N 38°25' E 014°58'3 8.5
2017-May-15 06:30N 38°28' E 014°58'1119.9
2017-May-15 05:56N 38°38' E 015°05'1022.5
2017-May-15 05:30N 38°46' E 015°12'612.5
2017-May-15 05:00N 38°41' E 015°16'1734.3
2017-May-15 04:30N 38°24' E 015°16'1121.4
2017-May-15 04:00N 38°13' E 015°14'0 0.0
2017-May-15 03:30N 38°13' E 015°14'0 0.0
2017-May-15 03:00N 38°13' E 015°14'0 0.0
2017-May-14 17:14N 38°13' E 015°14'0 0.0
2017-May-14 17:00N 38°13' E 015°14'1121.9
2017-May-14 16:31N 38°22' E 015°06'918.8
2017-May-14 16:00N 38°28' E 014°57'6 8.5
2017-May-14 15:20N 38°32' E 014°52'1317.1
2017-May-14 14:36N 38°33' E 014°35'10 7.6
2017-May-14 13:17N 38°33' E 014°48'4 9.5
2017-May-14 12:51N 38°33' E 014°53'613.8
2017-May-14 12:26N 38°28' E 014°57'614.6
2017-May-14 12:00N 38°23' E 015°02'1428.9
2017-May-14 11:31N 38°13' E 015°15'1 1.1
2017-May-14 11:00N 38°13' E 015°14'0 0.0
2017-May-14 10:31N 38°13' E 015°14'0 0.0
2017-May-14 10:00N 38°13' E 015°14'0 0.0
2017-May-14 09:30N 38°13' E 015°14'0 0.0
2017-May-14 09:01N 38°13' E 015°14'0 0.0
2017-May-14 08:30N 38°13' E 015°14'0 0.7
2017-May-14 08:00N 38°13' E 015°15'2 3.2
2017-May-14 07:31N 38°14' E 015°16'1530.8
2017-May-14 07:00N 38°24' E 015°01'5 8.6
2017-May-14 06:25N 38°28' E 014°58'1320.7
2017-May-14 05:48N 38°39' E 015°06'929.1
2017-May-14 05:30N 38°47' E 015°11'610.9
2017-May-14 04:59N 38°42' E 015°15'1634.3
2017-May-14 04:30N 38°26' E 015°16'1325.5
2017-May-14 04:00N 38°13' E 015°14'0 0.0
2017-May-14 03:30N 38°13' E 015°14'0 0.0
2017-May-14 03:00N 38°13' E 015°14'0 0.0
2017-May-13 17:08N 38°13' E 015°14'0 2.0
2017-May-13 17:01N 38°13' E 015°15'1324.8
2017-May-13 16:30N 38°23' E 015°05'811.5
2017-May-13 15:49N 38°28' E 014°58'612.2
2017-May-13 15:19N 38°32' E 014°51'2 1.1
2017-May-13 13:17N 38°32' E 014°49'4 8.9
2017-May-13 12:53N 38°33' E 014°53'  
Track history (hours):
 
Tides and Currents Weather Stations Pressure Air Temp Water Temp Dewpoint Dewpoint Depression Visibility Wind Speed Wind Dir Waves Ship Positions

Calypso

Last reported at 2017-May-23 12:52 UTC. Time now 2017-May-23 14:53 UTC.
Position N 38°32' E 014°56'.

Length 32 m; draft 4.2 m.

Type: High speed craft. MMSI: 247143200.

Date/timePositionNaut miles runAvg speedWind from/ knotsBaromVisibWave heightAir tempDewpointWater temp
2017-May-23 12:52N 38°32' E 014°56'411.5
2017-May-23 12:29N 38°28' E 014°57'613.0
2017-May-23 12:01N 38°23' E 015°02'1428.8
2017-May-23 11:30N 38°13' E 015°15'1 1.4
2017-May-23 11:00N 38°13' E 015°14'0 0.0
2017-May-23 10:30N 38°13' E 015°14'0 0.0
2017-May-23 10:00N 38°13' E 015°14'0 0.0
2017-May-23 09:30N 38°13' E 015°14'0 0.7
2017-May-23 09:00N 38°13' E 015°15'0 0.0
2017-May-23 08:30N 38°13' E 015°15'0 0.7
2017-May-23 08:00N 38°13' E 015°14'815.9
2017-May-23 07:30N 38°21' E 015°12'1221.8
2017-May-23 06:58N 38°25' E 014°58'4 7.1
2017-May-23 06:25N 38°29' E 014°59'1826.3
2017-May-23 05:43N 38°45' E 015°10'311.0
2017-May-23 05:29N 38°46' E 015°13'713.5
2017-May-23 04:58N 38°39' E 015°16'1533.8
2017-May-23 04:30N 38°24' E 015°17'1122.5
2017-May-23 04:00N 38°13' E 015°14'0 0.0
2017-May-23 03:30N 38°13' E 015°14'0 0.0
2017-May-22 17:23N 38°13' E 015°14'0 0.5
2017-May-22 17:00N 38°13' E 015°15'1224.7
2017-May-22 16:30N 38°22' E 015°04'812.1
2017-May-22 15:52N 38°28' E 014°58'5 1.5
2017-May-22 12:51N 38°33' E 014°56'511.4
2017-May-22 12:24N 38°28' E 014°58'614.8
2017-May-22 12:01N 38°23' E 015°03'1428.4
2017-May-22 11:31N 38°13' E 015°15'1 1.2
2017-May-22 11:00N 38°13' E 015°14'0 0.0
2017-May-22 10:31N 38°13' E 015°14'0 0.0
2017-May-22 10:01N 38°13' E 015°14'0 0.0
2017-May-22 09:31N 38°13' E 015°14'0 0.0
2017-May-22 09:01N 38°13' E 015°14'0 0.7
2017-May-22 08:30N 38°13' E 015°15'0 0.5
2017-May-22 08:01N 38°13' E 015°15'612.4
2017-May-22 07:31N 38°19' E 015°12'1320.6
2017-May-22 06:53N 38°26' E 014°59'512.6
2017-May-22 06:30N 38°31' E 015°00'1121.7
2017-May-22 05:58N 38°41' E 015°07'811.5
2017-May-22 05:14N 38°47' E 015°15'834.0
2017-May-22 05:00N 38°39' E 015°17'1733.8
2017-May-22 04:31N 38°23' E 015°19'1020.0
2017-May-22 04:00N 38°13' E 015°14'0 0.0
2017-May-22 03:30N 38°13' E 015°14'0 0.0
2017-May-21 17:45N 38°13' E 015°14'0 0.6
2017-May-21 17:30N 38°13' E 015°15'815.7
2017-May-21 17:00N 38°20' E 015°10'1118.3
2017-May-21 16:25N 38°25' E 014°58'813.4
2017-May-21 15:51N 38°33' E 014°57'1 0.3
2017-May-21 12:44N 38°32' E 014°58'412.3
2017-May-21 12:24N 38°28' E 014°58'717.5
2017-May-21 12:00N 38°23' E 015°05'1325.9
2017-May-21 11:30N 38°13' E 015°15'0 1.0
2017-May-21 11:00N 38°13' E 015°14'0 0.0
2017-May-21 10:30N 38°13' E 015°14'0 0.0
2017-May-21 10:00N 38°13' E 015°14'0 0.0
2017-May-21 09:30N 38°13' E 015°14'0 0.0
2017-May-21 09:00N 38°13' E 015°14'0 0.7
2017-May-21 08:30N 38°13' E 015°15'0 0.0
2017-May-21 08:00N 38°13' E 015°15'3 5.7
2017-May-21 07:30N 38°16' E 015°16'1325.9
2017-May-21 07:00N 38°23' E 015°03'6 9.5
2017-May-21 06:23N 38°28' E 014°59'1120.4
2017-May-21 05:49N 38°39' E 015°05'1133.0
2017-May-21 05:29N 38°47' E 015°14'918.7
2017-May-21 05:00N 38°38' E 015°18'1632.4
2017-May-21 04:31N 38°22' E 015°19'1019.9
2017-May-21 04:00N 38°13' E 015°14'0 0.0
2017-May-21 03:30N 38°13' E 015°14'0 0.0
2017-May-21 03:01N 38°13' E 015°14'0 0.0
2017-May-20 17:30N 38°13' E 015°14'2 4.6
2017-May-20 17:01N 38°15' E 015°16'1632.9
2017-May-20 16:30N 38°25' E 014°59'6 1.7
2017-May-20 12:49N 38°31' E 014°58'3 7.4
2017-May-20 12:24N 38°28' E 014°58'614.7
2017-May-20 12:00N 38°24' E 015°02'1529.7
2017-May-20 11:31N 38°14' E 015°16'1 2.6
2017-May-20 11:00N 38°13' E 015°14'0 0.0
2017-May-20 10:31N 38°13' E 015°14'0 0.0
2017-May-20 10:00N 38°13' E 015°14'0 0.0
2017-May-20 09:30N 38°13' E 015°14'0 0.0
2017-May-20 09:00N 38°13' E 015°14'0 0.7
2017-May-20 08:31N 38°13' E 015°15'0 0.0
2017-May-20 08:01N 38°13' E 015°15'3 6.0
2017-May-20 07:31N 38°16' E 015°16'1632.0
2017-May-20 07:00N 38°25' E 014°60'4 6.2
2017-May-20 06:25N 38°28' E 014°58'1221.1
2017-May-20 05:52N 38°38' E 015°05'1222.6
2017-May-20 05:21N 38°47' E 015°14'515.5
2017-May-20 05:00N 38°42' E 015°14'1734.5
2017-May-20 04:30N 38°25' E 015°15'1223.7
2017-May-20 04:00N 38°13' E 015°14'0 0.1
2017-May-20 03:30N 38°13' E 015°15'0 0.0
2017-May-20 03:00N 38°13' E 015°15'0 0.0
2017-May-19 17:01N 38°13' E 015°15'0 0.0
2017-May-19 17:00N 38°13' E 015°15'0 0.2
2017-May-19 16:31N 38°13' E 015°14'1223.7
2017-May-19 16:00N 38°23' E 015°05'811.9
2017-May-19 15:19N 38°28' E 014°57'1222.5
2017-May-19 14:47N 38°38' E 015°05'1012.5
2017-May-19 14:00N 38°47' E 015°11'1120.1
2017-May-19 13:27N 38°38' E 015°05'1117.0
2017-May-19 12:49N 38°28' E 014°59'1134.0
2017-May-19 12:30N 38°21' E 015°09'918.3
2017-May-19 12:00N 38°13' E 015°14'0 0.7
2017-May-19 11:30N 38°13' E 015°15'0 0.7
2017-May-19 11:00N 38°13' E 015°14'919.0
2017-May-19 10:31N 38°21' E 015°09'1019.0
2017-May-19 09:59N 38°27' E 014°59'1 3.0
2017-May-19 09:30N 38°29' E 014°59'815.4
2017-May-19 08:59N 38°33' E 014°50'1 0.6
2017-May-19 07:02N 38°32' E 014°48'128.2
2017-May-19 07:00N 38°33' E 014°50'612.3
2017-May-19 06:28N 38°32' E 014°58'612.9
2017-May-19 06:00N 38°26' E 014°59'1019.7
2017-May-19 05:31N 38°21' E 015°09'917.4
2017-May-19 05:00N 38°13' E 015°14'0 0.2
2017-May-19 04:30N 38°13' E 015°15'0 0.0
2017-May-19 04:00N 38°13' E 015°15'0 0.0
2017-May-18 16:59N 38°13' E 015°15'1 2.9
2017-May-18 16:31N 38°14' E 015°16'1732.2
2017-May-18 15:58N 38°25' E 014°59'6 8.7
2017-May-18 15:17N 38°31' E 015°00'1124.4
2017-May-18 14:50N 38°41' E 015°07'711.2
2017-May-18 14:14N 38°46' E 015°12'1115.3
2017-May-18 13:29N 38°37' E 015°04'1014.4
2017-May-18 12:49N 38°28' E 014°59'1134.3
2017-May-18 12:30N 38°21' E 015°09'918.3
2017-May-18 12:00N 38°13' E 015°14'0 0.7
2017-May-18 11:30N 38°13' E 015°15'0 0.0
2017-May-18 11:01N 38°13' E 015°15'611.2
2017-May-18 10:31N 38°18' E 015°15'1522.1
2017-May-18 09:50N 38°26' E 014°59'2 6.0
2017-May-18 09:30N 38°28' E 014°59'4 1.4
2017-May-18 06:30N 38°32' E 014°57'713.6
2017-May-18 06:00N 38°26' E 014°59'1019.9
2017-May-18 05:31N 38°21' E 015°10'816.9
2017-May-18 05:00N 38°13' E 015°14'0 0.2
2017-May-18 04:30N 38°13' E 015°15'0 0.0
2017-May-18 04:00N 38°13' E 015°15'0 0.0
2017-May-17 16:55N 38°13' E 015°15'0 0.3
2017-May-17 16:30N 38°13' E 015°15'1224.8
2017-May-17 16:00N 38°23' E 015°04'812.9
2017-May-17 15:24N 38°28' E 014°57'1523.3
2017-May-17 14:45N 38°41' E 015°07'713.7
2017-May-17 14:15N 38°46' E 015°13'1114.7
2017-May-17 13:30N 38°37' E 015°05'1116.4
2017-May-17 12:51N 38°28' E 014°58'1233.2
2017-May-17 12:30N 38°22' E 015°10'918.6
2017-May-17 12:00N 38°13' E 015°14'0 0.4
2017-May-17 11:30N 38°13' E 015°15'0 0.0
2017-May-17 11:00N 38°13' E 015°15'3 5.5
2017-May-17 10:31N 38°15' E 015°17'1918.0
2017-May-17 09:27N 38°29' E 014°59'3 0.9
2017-May-17 06:28N 38°31' E 014°58'613.1
2017-May-17 06:00N 38°25' E 014°58'918.2
2017-May-17 05:31N 38°21' E 015°08'918.1
2017-May-17 05:00N 38°13' E 015°14'0 0.2
2017-May-17 04:30N 38°13' E 015°15'0 0.0
2017-May-17 04:00N 38°13' E 015°15'0 0.0
2017-May-16 16:45N 38°13' E 015°15'0 0.3
2017-May-16 16:30N 38°13' E 015°14'918.3
2017-May-16 16:00N 38°21' E 015°08'1616.6
2017-May-16 15:02N 38°36' E 015°04'234.7
2017-May-16 15:00N 38°38' E 015°05'1217.0
2017-May-16 14:17N 38°47' E 015°14'1519.1
2017-May-16 13:30N 38°35' E 015°03'914.9
2017-May-16 12:54N 38°27' E 015°00'1334.0
2017-May-16 12:31N 38°18' E 015°14'5 9.9
2017-May-16 12:00N 38°13' E 015°14'0 0.7
2017-May-16 11:30N 38°13' E 015°15'0 0.0
2017-May-16 11:00N 38°13' E 015°15'4 8.2
2017-May-16 10:30N 38°17' E 015°16'1625.6
2017-May-16 09:53N 38°25' E 014°58'4 9.4
2017-May-16 09:30N 38°29' E 014°59'3 0.9
2017-May-16 06:30N 38°31' E 014°58'510.3
2017-May-16 06:00N 38°26' E 014°59'1020.1
2017-May-16 05:30N 38°21' E 015°09'917.2
2017-May-16 05:00N 38°13' E 015°14'0 0.0
2017-May-16 04:31N 38°13' E 015°14'0 0.0
2017-May-16 04:00N 38°13' E 015°14'0 0.0
2017-May-15 17:12N 38°13' E 015°14'0 0.0
2017-May-15 17:00N 38°13' E 015°14'1122.5
2017-May-15 16:31N 38°22' E 015°06'913.3
2017-May-15 15:50N 38°28' E 014°58'713.8
2017-May-15 15:18N 38°32' E 014°50'7 2.6
2017-May-15 12:45N 38°31' E 014°58'310.0
2017-May-15 12:27N 38°28' E 014°58'817.7
2017-May-15 12:00N 38°23' E 015°04'1325.4
2017-May-15 11:30N 38°13' E 015°15'0 0.7
2017-May-15 11:00N 38°13' E 015°14'0 0.0
2017-May-15 10:30N 38°13' E 015°14'0 0.0
2017-May-15 10:00N 38°13' E 015°14'0 0.0
2017-May-15 09:30N 38°13' E 015°14'0 0.0
2017-May-15 09:00N 38°13' E 015°14'0 0.7
2017-May-15 08:30N 38°13' E 015°15'0 0.0
2017-May-15 08:00N 38°13' E 015°15'4 8.7
2017-May-15 07:31N 38°17' E 015°15'1624.8
2017-May-15 06:53N 38°25' E 014°58'3 8.5
2017-May-15 06:30N 38°28' E 014°58'1119.9
2017-May-15 05:56N 38°38' E 015°05'1022.5
2017-May-15 05:30N 38°46' E 015°12'612.5
2017-May-15 05:00N 38°41' E 015°16'1734.3
2017-May-15 04:30N 38°24' E 015°16'1121.4
2017-May-15 04:00N 38°13' E 015°14'0 0.0
2017-May-15 03:30N 38°13' E 015°14'0 0.0
2017-May-15 03:00N 38°13' E 015°14'0 0.0
2017-May-14 17:14N 38°13' E 015°14'0 0.0
2017-May-14 17:00N 38°13' E 015°14'1121.9
2017-May-14 16:31N 38°22' E 015°06'918.8
2017-May-14 16:00N 38°28' E 014°57'6 8.5
2017-May-14 15:20N 38°32' E 014°52'1317.1
2017-May-14 14:36N 38°33' E 014°35'10 7.6
2017-May-14 13:17N 38°33' E 014°48'4 9.5
2017-May-14 12:51N 38°33' E 014°53'613.8
2017-May-14 12:26N 38°28' E 014°57'614.6
2017-May-14 12:00N 38°23' E 015°02'1428.9
2017-May-14 11:31N 38°13' E 015°15'1 1.1
2017-May-14 11:00N 38°13' E 015°14'0 0.0
2017-May-14 10:31N 38°13' E 015°14'0 0.0
2017-May-14 10:00N 38°13' E 015°14'0 0.0
2017-May-14 09:30N 38°13' E 015°14'0 0.0
2017-May-14 09:01N 38°13' E 015°14'0 0.0
2017-May-14 08:30N 38°13' E 015°14'0 0.7
2017-May-14 08:00N 38°13' E 015°15'2 3.2
2017-May-14 07:31N 38°14' E 015°16'1530.8
2017-May-14 07:00N 38°24' E 015°01'5 8.6
2017-May-14 06:25N 38°28' E 014°58'1320.7
2017-May-14 05:48N 38°39' E 015°06'929.1
2017-May-14 05:30N 38°47' E 015°11'610.9
2017-May-14 04:59N 38°42' E 015°15'1634.3
2017-May-14 04:30N 38°26' E 015°16'1325.5
2017-May-14 04:00N 38°13' E 015°14'0 0.0
2017-May-14 03:30N 38°13' E 015°14'0 0.0
2017-May-14 03:00N 38°13' E 015°14'0 0.0
2017-May-13 17:08N 38°13' E 015°14'0 2.0
2017-May-13 17:01N 38°13' E 015°15'1324.8
2017-May-13 16:30N 38°23' E 015°05'811.5
2017-May-13 15:49N 38°28' E 014°58'612.2
2017-May-13 15:19N 38°32' E 014°51'2 1.1
2017-May-13 13:17N 38°32' E 014°49'4 8.9
2017-May-13 12:53N 38°33' E 014°53'  

Dump ship's entire track history